Aéroport int. de Victoria, Colombie-Britannique

Conditions des dernières 24 heures

Date / Heure
(HAP)
Conditions Temp
(°F)
Humidité
(%)
Point de rosée
(°F)
Vent
(mph)
Pression (pouces) Vis
(mi)
Humidex
31 juillet 2015
10:00 Ensoleillé 74 46 53 E 5 30.1 30 78
9:00 Ensoleillé 72 43 49 calme 30.1 30 74
8:00 Ensoleillé 66 57 51 O 3 30.1 30 *
7:00 Ensoleillé 63 72 54 OSO 5 30.1 30 *
6:00 Généralement ensoleillé 59   74 50 OSO 6 30.1 30 *
5:00 Généralement dégagé 59   75 51 OSO 4 30.1 30 *
4:00 Dégagé 59   76 52 O 3 30.1 30 *
3:00 Dégagé 62 69 51 O 6 30.1 30 *
2:00 Dégagé 62 71 53 calme 30.0 30 *
1:00 Généralement dégagé 63 66 52 O 2 30.0 30 *
0:00 Généralement dégagé 66 62 53 N 2 30.0 30 *
30 juillet 2015
23:00 Dégagé 68 58 53 ONO 4 30.0 30 72
22:00 Dégagé 67 63 54 SSO 2 30.0 30 *
21:00 Généralement dégagé 71 50 52 E 4 30.0 30 75
20:00 Ensoleillé 75 45 52 ENE 4 30.0 30 78
19:00 Ensoleillé 83 33 52 E 5 30.0 30 86
18:00 Ensoleillé 85   34 54 ESE 5 30.0 30 89
17:00 Ensoleillé 83 36 54 E 6 30.0 30 87
16:00 Généralement ensoleillé 85   33 53 E 7 30.1 30 89
15:00 Généralement ensoleillé 84 29 49 ENE 9 30.1 30 86
14:00 Généralement ensoleillé 82 35 52 ESE 9 30.1 30 85
13:00 Généralement ensoleillé 82 33 50 E 9 30.1 30 84
12:00 Généralement ensoleillé 81 36 52 ENE 7 30.1 30 85
11:00 Généralement ensoleillé 78 41 53 N 5 30.1 30 82
10:00 Généralement ensoleillé 75 47 54 N 9 30.1 30 79
N.D. non disponible
↑ température la plus haute
↓ température la plus basse
* Valeur non significative.

Si vous désirez plus de données historiques sur les conditions météo, s.v.p. visitez Données climatologiques en ligne.

Ce que nous faisons

Date de modification :